Mooretown, Canada
Current Conditions -  °F | °C
As of 2:37 PM on Friday 28 Nov 2014 (Local Time) from KPHN Reporting Station
Broken Clouds Broken Clouds  
Wind Chill: 19°   Ceiling: 12000
Heat Index: 27°   Visibility: 10mi
Dew Point: 12°   Wind: 7mph
Humidity: 55%   Direction: 210°SSW
Pressure: 30.22"   Gusts: NA
Location:  42.84°N, 82.47°W
Report Text: KPHN 281937Z AUTO 21006KT 10SM BKN120 M03/M11 A3022 RMK AO2
Loading
Personal Weather Stations






























Interactive Weather Map New forecast layout! Learn more

10-Day Weather Forecast

Advertisements
Track Severe Weather on mobile